Time;durP1;ratioP1;P1;durP2;ratioP2;P2;SDS_P1;SDS_P2;PMS_P1;PMS_P2;Temp;Humidity;BMP_temperature;BMP_pressure;BME280_temperature;BME280_humidity;BME280_pressure;Samples;Min_cycle;Max_cycle;Signal;HPM_P1;HPM_P2
2023/12/02 00:00:07;;;;;;;14.25;6.05;;;;;;;2.29;59.39;101018.75;4995090;28;113714;-75
2023/12/02 00:02:40;;;;;;;20.02;7.03;;;;;;;2.28;58.91;101012.66;4974875;28;124412;-75
2023/12/02 00:05:07;;;;;;;17.30;7.05;;;;;;;2.26;59.20;101018.75;4978100;28;123186;-75
2023/12/02 00:07:36;;;;;;;16.63;6.38;;;;;;;2.27;58.95;101020.50;4977253;28;115300;-75
2023/12/02 00:10:03;;;;;;;17.42;5.90;;;;;;;2.27;59.02;101015.28;5001326;28;113834;-75
2023/12/02 00:12:33;;;;;;;17.67;6.50;;;;;;;2.26;59.14;101014.44;4984502;28;123766;-75
2023/12/02 00:15:00;;;;;;;18.63;6.95;;;;;;;2.29;59.22;101013.53;4971245;28;124247;-75
2023/12/02 00:17:31;;;;;;;18.55;7.85;;;;;;;2.31;59.39;101007.38;4966216;28;114332;-80
2023/12/02 00:20:02;;;;;;;16.38;6.72;;;;;;;2.35;59.32;101003.00;4979882;28;112451;-80
2023/12/02 00:22:30;;;;;;;21.00;6.97;;;;;;;2.38;59.15;101008.22;4984555;28;123073;-80
2023/12/02 00:24:57;;;;;;;17.17;6.63;;;;;;;2.37;59.09;101003.84;4988329;28;124266;-80
2023/12/02 00:27:24;;;;;;;16.20;6.50;;;;;;;2.37;58.97;101001.25;4992554;28;114601;-80
2023/12/02 00:29:54;;;;;;;16.23;6.70;;;;;;;2.37;59.19;100996.00;4985628;28;113348;-80
2023/12/02 00:32:21;;;;;;;17.80;6.75;;;;;;;2.38;59.11;101005.59;4990635;28;122363;-80
2023/12/02 00:35:07;;;;;;;16.98;7.55;;;;;;;2.38;59.21;101003.00;4973001;28;124522;-79
2023/12/02 00:37:34;;;;;;;16.05;6.70;;;;;;;2.35;59.00;101008.22;4963898;28;113026;-80
2023/12/02 00:40:07;;;;;;;21.60;7.55;;;;;;;2.35;59.01;101013.47;4991404;28;116355;-79
2023/12/02 00:42:34;;;;;;;17.48;7.15;;;;;;;2.32;59.05;101008.28;4989051;28;123263;-80
2023/12/02 00:45:04;;;;;;;18.20;6.00;;;;;;;2.31;59.23;101015.22;4986493;28;124248;-80
2023/12/02 00:47:31;;;;;;;18.75;6.63;;;;;;;2.30;59.01;101010.03;4985920;28;113455;-80
2023/12/02 00:50:03;;;;;;;15.93;6.13;;;;;;;2.29;59.11;101010.91;4989458;28;114217;-80
2023/12/02 00:52:30;;;;;;;16.88;6.25;;;;;;;2.28;59.04;101009.16;5005904;28;125288;-80
2023/12/02 00:55:06;;;;;;;19.20;6.70;;;;;;;2.26;59.04;101003.09;4981243;28;124556;-80
2023/12/02 00:57:34;;;;;;;18.98;6.65;;;;;;;2.25;58.79;101001.38;4987806;28;113680;-80
2023/12/02 01:00:03;;;;;;;16.17;6.18;;;;;;;2.22;59.15;100993.53;4982428;28;113952;-80
2023/12/02 01:02:32;;;;;;;21.92;7.07;;;;;;;2.19;58.97;100996.19;4972337;28;124430;-80
2023/12/02 01:04:59;;;;;;;22.02;7.45;;;;;;;2.18;58.99;100989.22;4985218;28;122759;-80
2023/12/02 01:07:27;;;;;;;17.88;7.05;;;;;;;2.15;58.80;101000.56;4976809;28;114965;-80
2023/12/02 01:10:03;;;;;;;15.63;6.18;;;;;;;2.10;58.78;100997.97;4983086;28;113441;-80
2023/12/02 01:12:31;;;;;;;15.02;5.97;;;;;;;2.11;58.78;100999.72;4993044;28;122708;-80
2023/12/02 01:14:59;;;;;;;20.83;6.90;;;;;;;2.13;58.93;100997.13;4982054;28;122746;-80
2023/12/02 01:17:26;;;;;;;17.65;6.70;;;;;;;2.16;59.07;100998.81;4977543;28;113865;-80
2023/12/02 01:19:56;;;;;;;19.02;6.75;;;;;;;2.16;59.01;100996.22;4976553;28;114245;-80
2023/12/02 01:22:23;;;;;;;18.27;6.72;;;;;;;2.14;59.09;100994.47;4977589;28;124912;-81
2023/12/02 01:24:55;;;;;;;16.25;6.28;;;;;;;2.13;58.92;100997.97;4980581;28;124273;-80
2023/12/02 01:27:22;;;;;;;16.17;6.82;;;;;;;2.11;59.03;100994.50;4970626;28;116576;-80
2023/12/02 01:29:50;;;;;;;19.92;6.95;;;;;;;2.09;58.72;101001.50;4979732;28;115391;-80
2023/12/02 01:32:18;;;;;;;19.27;6.93;;;;;;;2.09;58.85;100998.88;4999076;28;123105;-80
2023/12/02 01:34:46;;;;;;;16.30;6.60;;;;;;;2.10;59.00;101003.22;4987272;28;124566;-79
2023/12/02 01:37:14;;;;;;;19.98;7.20;;;;;;;2.12;59.02;101011.91;4990575;28;113827;-79
2023/12/02 01:39:41;;;;;;;14.82;5.78;;;;;;;2.13;58.79;101011.03;4982844;28;114402;-79
2023/12/02 01:42:08;;;;;;;17.35;6.75;;;;;;;2.11;58.83;101015.41;4990421;28;122664;-79
2023/12/02 01:44:36;;;;;;;17.00;6.55;;;;;;;2.11;59.02;101009.28;4975588;28;123773;-79
2023/12/02 01:47:04;;;;;;;13.95;6.38;;;;;;;2.10;58.89;101024.09;4975758;28;114102;-79
2023/12/02 01:49:32;;;;;;;16.55;6.22;;;;;;;2.08;58.81;101025.88;4984063;28;113683;-79
2023/12/02 01:52:16;;;;;;;17.13;6.30;;;;;;;2.05;58.82;101036.31;4985350;28;124080;-79
2023/12/02 01:54:43;;;;;;;16.67;6.85;;;;;;;2.06;59.14;101027.63;4973994;28;123879;-79
2023/12/02 01:57:15;;;;;;;20.00;6.80;;;;;;;2.05;59.10;101036.31;4983085;28;113025;-79
2023/12/02 01:59:57;;;;;;;15.48;6.20;;;;;;;2.05;59.20;101028.50;4977213;28;114324;-79
2023/12/02 02:02:25;;;;;;;16.17;6.20;;;;;;;2.08;59.34;101038.94;4977953;28;124655;-79
2023/12/02 02:04:56;;;;;;;16.77;6.55;;;;;;;2.09;59.13;101035.47;4976800;28;123762;-79
2023/12/02 02:07:25;;;;;;;18.02;6.90;;;;;;;2.09;59.05;101043.28;4966540;28;114151;-79
2023/12/02 02:09:53;;;;;;;14.40;6.00;;;;;;;2.09;59.06;101043.28;4976467;28;114143;-80
2023/12/02 02:12:22;;;;;;;18.42;6.63;;;;;;;2.10;59.17;101033.69;4977781;28;124441;-81
2023/12/02 02:14:49;;;;;;;15.55;6.53;;;;;;;2.10;58.85;101045.00;5016173;28;123306;-82
2023/12/02 02:17:16;;;;;;;16.02;6.45;;;;;;;2.09;58.98;101037.19;4990016;28;115469;-82
2023/12/02 02:19:45;;;;;;;20.27;7.22;;;;;;;2.06;59.12;101035.47;4988754;28;114809;-82
2023/12/02 02:22:14;;;;;;;18.52;6.60;;;;;;;2.07;59.22;101037.22;4998671;28;122480;-81
2023/12/02 02:24:45;;;;;;;17.58;6.40;;;;;;;2.07;58.84;101042.44;4997522;28;123387;-82
2023/12/02 02:27:13;;;;;;;15.25;6.65;;;;;;;2.07;59.07;101029.38;4977927;28;112864;-81
2023/12/02 02:29:43;;;;;;;18.83;7.20;;;;;;;2.05;59.12;101031.09;5006578;28;111982;-81
2023/12/02 02:32:10;;;;;;;19.08;6.68;;;;;;;2.06;58.92;101027.63;4984913;28;122399;-80
2023/12/02 02:34:43;;;;;;;16.23;6.40;;;;;;;2.06;59.15;101022.41;4985637;28;124873;-80
2023/12/02 02:37:10;;;;;;;17.73;6.38;;;;;;;2.09;58.82;101031.94;4989265;28;114752;-79
2023/12/02 02:39:38;;;;;;;17.45;6.38;;;;;;;2.08;58.89;101041.53;4989773;28;112749;-79
2023/12/02 02:42:08;;;;;;;18.48;6.72;;;;;;;2.06;58.76;101042.44;4984910;28;122842;-79
2023/12/02 02:44:48;;;;;;;14.57;5.88;;;;;;;1.99;58.58;101036.38;5004789;28;123006;-79
2023/12/02 02:47:15;;;;;;;15.32;5.80;;;;;;;1.96;58.65;101046.88;4991693;28;114705;-79
2023/12/02 02:50:05;;;;;;;17.30;6.15;;;;;;;1.92;58.74;101042.50;4966884;28;113759;-79
2023/12/02 02:52:32;;;;;;;18.40;6.93;;;;;;;1.91;58.54;101041.66;4984845;28;124073;-78
2023/12/02 02:55:00;;;;;;;15.05;6.63;;;;;;;1.92;58.87;101045.13;4987767;28;123963;-78
2023/12/02 02:57:28;;;;;;;15.88;6.28;;;;;;;1.95;59.11;101039.88;4986481;28;114108;-75
2023/12/02 02:59:55;;;;;;;17.73;6.68;;;;;;;1.99;58.96;101036.38;4993530;28;113913;-74
2023/12/02 03:02:23;;;;;;;14.23;5.45;;;;;;;2.00;58.99;101038.13;4975015;28;124732;-74
2023/12/02 03:04:51;;;;;;;15.07;5.43;;;;;;;2.04;58.99;101041.59;4977061;28;123562;-74
2023/12/02 03:07:18;;;;;;;18.50;5.88;;;;;;;2.01;58.83;101039.84;4972634;28;114201;-74
2023/12/02 03:09:46;;;;;;;16.55;6.43;;;;;;;1.99;58.87;101041.59;4964628;28;115350;-74
2023/12/02 03:12:13;;;;;;;14.63;5.32;;;;;;;2.01;58.96;101039.84;4971746;28;123098;-74
2023/12/02 03:14:41;;;;;;;16.38;5.80;;;;;;;2.04;59.22;101037.22;4975444;28;123613;-74
2023/12/02 03:17:09;;;;;;;13.20;5.40;;;;;;;2.06;58.99;101035.47;4964941;28;114656;-74
2023/12/02 03:19:37;;;;;;;11.50;5.55;;;;;;;2.10;59.03;101038.94;4981138;28;113428;-74
2023/12/02 03:22:04;;;;;;;15.10;5.80;;;;;;;2.11;59.09;101057.22;4985260;28;124729;-74
2023/12/02 03:24:32;;;;;;;15.43;5.80;;;;;;;2.10;58.89;101065.91;4963292;28;124287;-74
2023/12/02 03:26:59;;;;;;;14.90;6.05;;;;;;;2.08;58.77;101059.81;4969179;28;115356;-74
2023/12/02 03:29:26;;;;;;;14.57;5.70;;;;;;;2.07;58.83;101079.00;4972893;28;113654;-75
2023/12/02 03:31:54;;;;;;;17.58;6.32;;;;;;;2.08;58.78;101067.66;4987982;28;124452;-74
2023/12/02 03:34:21;;;;;;;18.23;5.70;;;;;;;2.07;58.91;101075.50;4973037;28;124406;-74
2023/12/02 03:36:48;;;;;;;14.82;5.35;;;;;;;2.06;59.07;101074.66;4978648;28;113896;-74
2023/12/02 03:39:18;;;;;;;16.17;5.97;;;;;;;2.06;59.08;101074.66;4965327;28;114497;-74
2023/12/02 03:41:47;;;;;;;14.65;6.18;;;;;;;2.08;58.91;101072.03;4976616;28;123881;-74
2023/12/02 03:44:15;;;;;;;16.75;5.88;;;;;;;2.09;59.06;101085.09;4982945;28;122956;-74
2023/12/02 03:46:44;;;;;;;14.55;5.32;;;;;;;2.11;58.94;101072.88;4980061;28;113904;-74
2023/12/02 03:49:11;;;;;;;19.02;6.05;;;;;;;2.16;59.29;101071.97;4990554;28;114343;-74
2023/12/02 03:51:38;;;;;;;14.13;5.55;;;;;;;2.17;58.95;101076.31;4979659;28;124511;-74
2023/12/02 03:54:06;;;;;;;15.00;5.85;;;;;;;2.16;58.88;101079.81;4975512;28;124283;-74
2023/12/02 03:56:38;;;;;;;12.10;5.55;;;;;;;2.18;59.08;101083.28;4971487;28;115349;-74
2023/12/02 03:59:05;;;;;;;14.65;5.82;;;;;;;2.22;59.30;101075.41;4963151;28;114740;-74
2023/12/02 04:01:33;;;;;;;13.50;5.22;;;;;;;2.25;59.06;101079.75;4972664;28;123585;-74
2023/12/02 04:04:00;;;;;;;16.40;5.75;;;;;;;2.27;59.09;101078.84;4974072;28;123945;-74
2023/12/02 04:06:27;;;;;;;14.90;6.00;;;;;;;2.31;59.06;101085.78;4974240;28;114846;-74
2023/12/02 04:08:55;;;;;;;14.13;5.93;;;;;;;2.32;58.93;101071.88;4969655;28;114921;-74
2023/12/02 04:11:24;;;;;;;14.30;5.93;;;;;;;2.34;58.95;101084.94;4970089;28;123787;-74
2023/12/02 04:13:51;;;;;;;14.20;6.10;;;;;;;2.34;59.15;101079.69;4977292;28;123882;-73
2023/12/02 04:16:18;;;;;;;17.83;5.55;;;;;;;2.33;59.20;101083.19;4970784;28;114590;-73
2023/12/02 04:18:46;;;;;;;14.85;5.40;;;;;;;2.35;59.09;101091.88;4970201;28;113917;-73
2023/12/02 04:21:13;;;;;;;16.15;6.22;;;;;;;2.33;59.06;101088.41;4969259;28;124390;-73
2023/12/02 04:23:40;;;;;;;13.95;5.13;;;;;;;2.34;59.12;101095.38;4970235;28;123911;-73
2023/12/02 04:26:08;;;;;;;16.08;6.00;;;;;;;2.38;59.30;101097.09;4970846;28;115161;-73
2023/12/02 04:28:36;;;;;;;14.98;5.10;;;;;;;2.42;59.05;101096.19;4968980;28;113883;-73
2023/12/02 04:31:04;;;;;;;14.85;5.82;;;;;;;2.46;59.02;101105.72;4972139;28;124770;-73
2023/12/02 04:33:31;;;;;;;18.20;6.72;;;;;;;2.47;59.36;101102.25;4972473;28;123812;-73
2023/12/02 04:35:59;;;;;;;18.55;6.53;;;;;;;2.49;58.88;101105.72;4973472;28;114417;-73
2023/12/02 04:38:26;;;;;;;16.52;6.00;;;;;;;2.47;58.93;101102.25;4968467;28;114547;-75
2023/12/02 04:40:53;;;;;;;14.32;6.25;;;;;;;2.47;58.75;101102.25;4969958;28;123872;-75
2023/12/02 04:43:20;;;;;;;18.98;6.30;;;;;;;2.48;59.31;101103.97;4971639;28;125189;-75
2023/12/02 04:45:48;;;;;;;13.63;5.53;;;;;;;2.49;58.97;101116.19;4976582;28;115103;-74
2023/12/02 04:48:15;;;;;;;16.48;6.05;;;;;;;2.50;59.00;101115.28;4973830;28;115428;-74
2023/12/02 04:50:42;;;;;;;17.75;5.90;;;;;;;2.55;59.08;101111.78;4974994;28;123938;-75
2023/12/02 04:53:09;;;;;;;12.57;5.00;;;;;;;2.53;58.85;101102.19;4973210;28;123904;-75
2023/12/02 04:55:39;;;;;;;16.45;5.97;;;;;;;2.55;58.83;101102.19;4974086;28;113773;-75
2023/12/02 04:58:06;;;;;;;17.73;6.50;;;;;;;2.57;59.14;101102.19;4965293;28;113553;-76
2023/12/02 05:00:34;;;;;;;14.82;5.70;;;;;;;2.56;58.87;101111.75;4969557;28;123560;-75
2023/12/02 05:03:01;;;;;;;19.60;6.10;;;;;;;2.57;58.96;101107.41;4976652;28;123823;-75
2023/12/02 05:05:29;;;;;;;13.13;5.25;;;;;;;2.60;58.94;101117.81;4983542;28;114288;-74
2023/12/02 05:07:56;;;;;;;15.95;6.18;;;;;;;2.61;59.02;101119.56;4972737;28;114202;-75
2023/12/02 05:10:23;;;;;;;16.08;6.25;;;;;;;2.63;58.98;101117.81;4975152;28;124834;-74
2023/12/02 05:12:51;;;;;;;13.40;5.82;;;;;;;2.63;58.93;101117.81;4990273;28;123358;-74
2023/12/02 05:15:18;;;;;;;14.90;6.07;;;;;;;2.62;58.73;101131.75;4964689;28;114856;-73
2023/12/02 05:17:46;;;;;;;14.55;5.65;;;;;;;2.59;58.86;101122.19;4976867;28;114428;-73
2023/12/02 05:20:13;;;;;;;16.15;5.82;;;;;;;2.58;58.61;101125.72;4965829;28;123862;-73
2023/12/02 05:22:40;;;;;;;16.52;6.32;;;;;;;2.57;58.60;101134.41;4965930;28;124900;-73
2023/12/02 05:25:08;;;;;;;16.65;6.07;;;;;;;2.57;58.61;101133.56;4969735;28;113761;-73
2023/12/02 05:27:36;;;;;;;18.42;6.57;;;;;;;2.53;58.90;101136.19;4963451;28;113924;-73
2023/12/02 05:30:04;;;;;;;15.18;6.43;;;;;;;2.51;58.87;101130.09;4989397;28;124308;-73
2023/12/02 05:32:31;;;;;;;14.95;5.82;;;;;;;2.55;58.98;101133.56;4984386;28;123584;-74
2023/12/02 05:34:58;;;;;;;17.02;5.70;;;;;;;2.57;59.12;101129.19;4993788;28;114879;-75
2023/12/02 05:37:27;;;;;;;17.20;6.43;;;;;;;2.58;58.84;101130.03;4977297;28;114065;-75
2023/12/02 05:39:54;;;;;;;15.35;5.75;;;;;;;2.58;58.55;101135.28;4964598;28;125249;-75
2023/12/02 05:42:21;;;;;;;15.13;5.65;;;;;;;2.58;59.05;101124.81;4967103;28;123893;-75
2023/12/02 05:44:48;;;;;;;16.17;6.15;;;;;;;2.59;58.89;101127.44;4989715;28;114469;-74
2023/12/02 05:47:16;;;;;;;16.02;6.00;;;;;;;2.62;59.11;101134.38;4977994;28;113886;-74
2023/12/02 05:49:44;;;;;;;15.38;5.97;;;;;;;2.63;58.92;101123.03;4981896;28;124826;-74
2023/12/02 05:52:11;;;;;;;12.65;5.35;;;;;;;2.65;58.99;101134.34;4971422;28;124455;-74
2023/12/02 05:54:39;;;;;;;15.18;5.82;;;;;;;2.65;58.83;101137.81;4969749;28;113395;-74
2023/12/02 05:57:06;;;;;;;15.02;5.85;;;;;;;2.67;58.98;101137.81;4992161;28;114187;-74
2023/12/02 05:59:36;;;;;;;13.57;5.70;;;;;;;2.67;58.89;101141.28;4958430;28;123120;-74
2023/12/02 06:02:03;;;;;;;16.55;6.03;;;;;;;2.69;58.87;101143.91;4986332;28;122877;-73
2023/12/02 06:04:31;;;;;;;17.40;6.03;;;;;;;2.68;58.63;101143.03;4968818;28;114669;-74
2023/12/02 06:06:59;;;;;;;15.02;5.68;;;;;;;2.67;59.03;101153.50;4970109;28;113862;-74
2023/12/02 06:09:26;;;;;;;14.13;5.80;;;;;;;2.68;58.90;101147.41;4966931;28;124076;-74
2023/12/02 06:11:55;;;;;;;17.35;6.15;;;;;;;2.68;58.79;101150.03;4975313;28;123772;-74
2023/12/02 06:14:22;;;;;;;16.20;5.38;;;;;;;2.66;58.89;101155.28;4972782;28;113342;-74
2023/12/02 06:16:50;;;;;;;14.82;6.38;;;;;;;2.67;58.90;101156.13;4971548;28;114335;-74
2023/12/02 06:19:20;;;;;;;17.65;6.15;;;;;;;2.67;58.97;101153.50;4969943;28;124004;-74
2023/12/02 06:21:48;;;;;;;14.07;5.65;;;;;;;2.65;58.73;101152.66;4974753;28;124091;-74
2023/12/02 06:24:15;;;;;;;17.58;5.70;;;;;;;2.64;58.89;101145.72;4968803;28;115236;-74
2023/12/02 06:26:43;;;;;;;14.85;5.82;;;;;;;2.62;58.93;101148.34;4968820;28;114810;-74
2023/12/02 06:29:11;;;;;;;16.08;6.00;;;;;;;2.60;58.62;101150.09;4965184;28;124395;-74
2023/12/02 06:31:41;;;;;;;15.30;6.57;;;;;;;2.60;59.04;101155.31;4963826;28;123721;-74
2023/12/02 06:34:08;;;;;;;13.48;5.78;;;;;;;2.60;58.79;101159.66;4964472;28;115668;-73
2023/12/02 06:36:37;;;;;;;17.02;6.35;;;;;;;2.59;58.65;101168.41;4968768;28;114290;-73
2023/12/02 06:39:04;;;;;;;16.58;6.40;;;;;;;2.58;58.90;101166.66;4975118;28;124802;-73
2023/12/02 06:41:31;;;;;;;13.75;6.22;;;;;;;2.56;58.77;101173.63;4968261;28;123377;-73
2023/12/02 06:43:58;;;;;;;15.50;6.40;;;;;;;2.55;58.91;101171.91;4962551;28;114357;-73
2023/12/02 06:46:26;;;;;;;15.40;5.70;;;;;;;2.52;58.92;101173.69;4968084;28;113725;-73
2023/12/02 06:48:53;;;;;;;16.05;6.22;;;;;;;2.50;58.77;101175.41;4967392;28;123749;-73
2023/12/02 06:51:21;;;;;;;18.58;6.57;;;;;;;2.50;58.96;101183.25;4971024;28;124393;-73
2023/12/02 06:53:48;;;;;;;13.55;5.93;;;;;;;2.49;58.89;101184.16;4967414;28;114030;-73
2023/12/02 06:56:21;;;;;;;19.85;6.40;;;;;;;2.48;58.99;101192.84;4968862;28;113778;-73
2023/12/02 06:58:49;;;;;;;13.55;5.45;;;;;;;2.48;58.97;101195.47;4980385;28;124880;-73
2023/12/02 07:01:27;;;;;;;16.58;5.80;;;;;;;2.48;59.02;101203.31;4969181;28;123003;-73
2023/12/02 07:03:55;;;;;;;14.98;5.70;;;;;;;2.49;58.91;101214.66;4955945;28;114016;-72
2023/12/02 07:06:23;;;;;;;14.77;6.13;;;;;;;2.49;59.11;101215.50;4972671;28;113977;-74
2023/12/02 07:08:51;;;;;;;15.82;6.20;;;;;;;2.49;58.75;101219.88;4972179;28;124147;-73
2023/12/02 07:11:21;;;;;;;14.43;6.13;;;;;;;2.47;58.90;101217.28;4971518;28;123700;-73
2023/12/02 07:13:48;;;;;;;22.98;7.05;;;;;;;2.50;58.91;101230.31;4975669;28;114632;-74
2023/12/02 07:16:16;;;;;;;17.23;6.53;;;;;;;2.51;59.14;101229.44;4973804;28;114985;-73
2023/12/02 07:18:44;;;;;;;19.52;6.45;;;;;;;2.52;59.13;101241.66;4980594;28;123815;-73
2023/12/02 07:21:11;;;;;;;19.27;6.88;;;;;;;2.53;58.96;101238.16;4969939;28;124329;-74
2023/12/02 07:23:38;;;;;;;13.68;5.90;;;;;;;2.52;58.76;101231.19;4977021;28;114087;-73
2023/12/02 07:26:06;;;;;;;14.10;5.90;;;;;;;2.53;58.95;101232.06;4971897;28;115374;-73
2023/12/02 07:28:33;;;;;;;16.90;6.10;;;;;;;2.52;59.10;101231.19;4974118;28;124911;-76
2023/12/02 07:31:04;;;;;;;17.92;6.43;;;;;;;2.51;59.04;101239.91;4979808;28;124260;-78
2023/12/02 07:33:31;;;;;;;15.60;6.05;;;;;;;2.50;59.05;101243.38;4969457;28;114620;-78
2023/12/02 07:35:59;;;;;;;16.73;6.63;;;;;;;2.51;59.10;101242.50;4967563;28;114344;-77
2023/12/02 07:38:26;;;;;;;15.65;6.10;;;;;;;2.52;58.88;101252.13;4966716;28;123822;-78
2023/12/02 07:40:53;;;;;;;16.70;6.90;;;;;;;2.52;59.22;101252.13;4973157;28;124548;-77
2023/12/02 07:43:20;;;;;;;18.35;6.90;;;;;;;2.55;59.04;101260.81;4955211;28;115564;-78
2023/12/02 07:45:48;;;;;;;16.15;6.18;;;;;;;2.56;59.03;101262.53;4965744;28;113649;-78
2023/12/02 07:48:16;;;;;;;14.48;6.22;;;;;;;2.58;59.05;101266.00;4968876;28;123646;-78
2023/12/02 07:50:43;;;;;;;19.30;7.05;;;;;;;2.60;59.20;101264.25;4984551;28;123275;-78
2023/12/02 07:53:10;;;;;;;20.45;6.95;;;;;;;2.61;58.96;101263.38;4952416;28;114990;-78
2023/12/02 07:55:37;;;;;;;20.42;6.93;;;;;;;2.64;59.04;101260.75;4967803;28;113262;-77
2023/12/02 07:58:05;;;;;;;21.02;7.78;;;;;;;2.64;59.12;101271.22;4955576;28;123937;-78
2023/12/02 08:00:32;;;;;;;18.08;6.95;;;;;;;2.67;58.98;101265.97;4969943;28;124051;-77
2023/12/02 08:02:59;;;;;;;17.20;6.43;;;;;;;2.70;59.03;101268.56;4963203;28;114836;-78
2023/12/02 08:05:26;;;;;;;18.50;7.22;;;;;;;2.73;59.13;101277.28;4968389;28;115175;-78
2023/12/02 08:07:56;;;;;;;16.70;6.95;;;;;;;2.75;59.12;101274.66;4967856;28;123534;-78
2023/12/02 08:10:24;;;;;;;21.23;7.75;;;;;;;2.77;59.32;101270.28;4970531;28;124067;-78
2023/12/02 08:12:51;;;;;;;19.48;7.45;;;;;;;2.78;59.16;101272.00;4959010;28;113968;-77
2023/12/02 08:15:18;;;;;;;16.42;6.88;;;;;;;2.81;59.19;101279.84;4983962;28;114034;-77
2023/12/02 08:17:46;;;;;;;15.38;6.60;;;;;;;2.83;59.03;101279.84;4964205;28;125033;-78
2023/12/02 08:20:14;;;;;;;19.13;6.85;;;;;;;2.82;59.16;101281.56;4969148;28;123981;-78
2023/12/02 08:22:41;;;;;;;17.90;6.70;;;;;;;2.84;59.17;101279.78;4970332;28;114219;-78
2023/12/02 08:25:08;;;;;;;14.98;6.57;;;;;;;2.83;59.09;101288.53;4969359;28;115047;-78
2023/12/02 08:27:35;;;;;;;18.02;7.50;;;;;;;2.83;59.00;101293.78;4956564;28;122952;-78
2023/12/02 08:30:05;;;;;;;20.42;7.30;;;;;;;2.84;59.11;101300.72;4961050;28;123058;-79
2023/12/02 08:32:32;;;;;;;17.65;6.85;;;;;;;2.84;58.86;101300.72;4968972;28;114839;-78
2023/12/02 08:35:00;;;;;;;16.65;7.03;;;;;;;2.86;58.93;101299.00;4966750;28;113733;-78
2023/12/02 08:37:27;;;;;;;19.20;7.25;;;;;;;2.88;59.20;101301.56;4967401;28;124157;-78
2023/12/02 08:39:54;;;;;;;20.42;7.43;;;;;;;2.88;58.98;101302.47;4981913;28;124222;-79
2023/12/02 08:42:22;;;;;;;19.83;7.57;;;;;;;2.90;59.03;101305.94;4974962;28;115682;-79
2023/12/02 08:44:49;;;;;;;19.92;7.43;;;;;;;2.91;59.13;101312.03;4967948;28;114311;-78
2023/12/02 08:47:16;;;;;;;18.60;7.00;;;;;;;2.90;58.95;101305.06;4965339;28;123645;-77
2023/12/02 08:49:43;;;;;;;20.33;7.65;;;;;;;2.91;59.00;101314.66;4966866;28;123769;-77
2023/12/02 08:52:11;;;;;;;18.17;7.32;;;;;;;2.95;59.01;101310.28;4970613;28;115217;-79
2023/12/02 08:54:38;;;;;;;19.52;7.63;;;;;;;2.97;58.93;101311.13;4969409;28;116680;-76
2023/12/02 08:57:06;;;;;;;18.60;7.50;;;;;;;2.98;59.33;101312.88;4979586;28;124204;-77
2023/12/02 08:59:33;;;;;;;22.10;7.63;;;;;;;3.00;59.00;101316.34;4962727;28;123759;-77
2023/12/02 09:02:00;;;;;;;20.50;7.80;;;;;;;3.02;59.09;101327.69;4960925;28;112485;-77
2023/12/02 09:04:28;;;;;;;21.27;7.40;;;;;;;3.06;59.10;101332.88;4968691;28;114512;-77
2023/12/02 09:06:55;;;;;;;22.25;7.40;;;;;;;3.11;59.39;101335.47;4968749;28;123753;-77
2023/12/02 09:09:23;;;;;;;19.52;7.55;;;;;;;3.12;59.00;101331.97;4966478;28;123640;-77
2023/12/02 09:11:50;;;;;;;20.20;7.63;;;;;;;3.14;59.03;101335.44;4952168;28;113855;-77
2023/12/02 09:14:21;;;;;;;19.92;7.55;;;;;;;3.14;59.01;101330.19;4969162;28;114532;-77
2023/12/02 09:16:50;;;;;;;24.45;8.20;;;;;;;3.18;59.20;101331.91;4968319;28;124376;-77
2023/12/02 09:19:52;;;;;;;20.20;7.40;;;;;;;3.17;59.08;101332.81;4964625;28;123895;-77
2023/12/02 09:22:46;;;;;;;21.27;7.53;;;;;;;3.18;58.80;101331.91;4968609;28;113489;-77
2023/12/02 09:25:29;;;;;;;19.38;7.60;;;;;;;3.15;58.90;101334.56;4964658;28;113859;-79
2023/12/02 09:28:27;;;;;;;22.42;8.25;;;;;;;3.15;58.92;101329.34;4966291;28;124172;-77
2023/12/02 09:31:00;;;;;;;15.32;7.18;;;;;;;3.15;58.79;101336.31;4948223;28;122898;-77
2023/12/02 09:33:36;;;;;;;26.23;8.68;;;;;;;3.15;59.12;101345.03;4979528;28;113141;-78
2023/12/02 09:36:04;;;;;;;24.90;8.48;;;;;;;3.17;59.13;101345.91;4959220;28;113168;-78
2023/12/02 09:38:33;;;;;;;23.27;8.18;;;;;;;3.20;58.88;101356.34;4966292;28;124488;-78
2023/12/02 09:41:20;;;;;;;22.30;9.13;;;;;;;3.21;59.02;101358.06;4981358;28;124185;-78
2023/12/02 09:44:06;;;;;;;25.10;8.88;;;;;;;3.24;59.11;101363.31;4957899;28;115593;-77
2023/12/02 09:46:40;;;;;;;19.67;7.80;;;;;;;3.26;59.14;101361.53;4954263;28;114765;-77
2023/12/02 09:49:13;;;;;;;23.77;8.27;;;;;;;3.31;59.26;101362.38;4961551;28;123688;-77
2023/12/02 09:52:09;;;;;;;22.80;8.32;;;;;;;3.36;59.10;101361.50;4965801;28;124412;-78
2023/12/02 09:54:53;;;;;;;;;;;;;;;3.39;59.06;101362.34;4917890;28;113835;-79
2023/12/02 09:57:32;;;;;;;24.23;8.45;;;;;;;3.43;58.96;101368.44;4970748;28;113454;-79
2023/12/02 10:00:12;;;;;;;21.38;8.02;;;;;;;3.45;59.00;101367.53;4964411;28;123753;-79
2023/12/02 10:02:42;;;;;;;21.30;7.85;;;;;;;3.47;59.21;101362.28;4967050;28;123846;-79
2023/12/02 10:05:11;;;;;;;19.83;8.63;;;;;;;3.50;58.95;101365.75;4984449;28;114103;-78
2023/12/02 10:08:00;;;;;;;27.15;8.93;;;;;;;3.54;59.33;101361.31;4965228;28;113768;-78
2023/12/02 10:10:36;;;;;;;25.50;9.30;;;;;;;3.59;59.34;101364.78;4967071;28;125501;-78
2023/12/02 10:13:21;;;;;;;26.63;8.57;;;;;;;3.62;59.28;101359.53;4964741;28;123161;-79
2023/12/02 10:15:53;;;;;;;24.20;8.75;;;;;;;3.67;59.05;101373.47;4960940;28;113356;-78
2023/12/02 10:18:22;;;;;;;25.42;9.88;;;;;;;3.72;59.33;101354.22;4963434;28;113264;-78
2023/12/02 10:20:59;;;;;;;28.05;9.57;;;;;;;3.77;59.03;101368.13;4967334;28;124499;-78
2023/12/02 10:23:36;;;;;;;24.27;8.80;;;;;;;3.80;58.96;101362.88;4967076;28;123401;-78
2023/12/02 10:26:15;;;;;;;22.95;9.45;;;;;;;3.80;58.83;101368.13;4962131;28;114300;-78
2023/12/02 10:29:16;;;;;;;27.77;9.48;;;;;;;3.80;59.01;101362.88;4957625;28;114360;-78
2023/12/02 10:31:56;;;;;;;23.80;9.25;;;;;;;3.79;59.05;101361.16;4951301;28;123663;-79
2023/12/02 10:34:47;;;;;;;23.23;9.07;;;;;;;3.80;59.07;101365.50;4963639;28;123803;-79
2023/12/02 10:37:14;;;;;;;22.80;9.00;;;;;;;3.82;58.70;101366.34;4968686;28;115473;-79
2023/12/02 10:39:46;;;;;;;26.13;9.82;;;;;;;3.83;58.87;101363.72;4970695;28;114721;-79
2023/12/02 10:42:16;;;;;;;27.95;9.82;;;;;;;3.89;59.07;101368.91;4970850;28;123634;-78
2023/12/02 10:44:54;;;;;;;21.95;8.75;;;;;;;3.96;59.09;101363.63;4971359;28;123884;-78
2023/12/02 10:47:22;;;;;;;23.55;9.02;;;;;;;4.01;59.08;101352.22;4967038;28;114100;-78
2023/12/02 10:49:49;;;;;;;26.63;9.90;;;;;;;4.06;58.99;101347.78;4963492;28;114317;-78
2023/12/02 10:52:17;;;;;;;21.38;7.95;;;;;;;4.09;59.15;101346.91;4961956;28;125372;-78
2023/12/02 10:54:52;;;;;;;28.92;9.48;;;;;;;4.10;58.81;101346.84;4969150;28;125017;-78
2023/12/02 10:57:21;;;;;;;24.20;9.13;;;;;;;4.12;58.89;101343.38;4961651;28;113899;-78
2023/12/02 11:00:06;;;;;;;23.80;8.25;;;;;;;4.12;58.83;101344.22;4976546;28;114379;-79
2023/12/02 11:02:38;;;;;;;25.23;9.83;;;;;;;4.13;58.81;101345.13;4969301;28;123291;-78
2023/12/02 11:05:33;;;;;;;21.85;8.40;;;;;;;4.16;59.14;101350.31;4969233;28;123372;-78
2023/12/02 11:08:07;;;;;;;21.97;8.40;;;;;;;4.18;58.94;101348.53;4966995;28;112330;-78
2023/12/02 11:10:43;;;;;;;23.02;8.68;;;;;;;4.21;59.05;101348.50;4966089;28;113186;-78
2023/12/02 11:13:14;;;;;;;27.45;9.32;;;;;;;4.23;58.97;101341.50;4957217;28;122641;-78
2023/12/02 11:16:21;;;;;;;21.30;8.63;;;;;;;4.27;58.95;101348.44;4961195;28;123708;-78
2023/12/02 11:19:18;;;;;;;25.73;9.48;;;;;;;4.29;59.08;101341.41;4962488;28;114386;-78
2023/12/02 11:22:27;;;;;;;25.60;8.52;;;;;;;4.34;59.08;101344.88;4958588;28;111649;-78
2023/12/02 11:25:22;;;;;;;20.70;7.45;;;;;;;4.35;58.92;101341.38;4983960;28;124643;-78
2023/12/02 11:27:59;;;;;;;24.08;8.65;;;;;;;4.37;59.11;101350.09;4965169;28;123711;-78
2023/12/02 11:31:04;;;;;;;22.00;8.15;;;;;;;4.41;59.28;101343.91;4961832;28;115137;-78